TimeEDT,TemperatureF,Dew PointF,Humidity,Sea Level PressureIn,VisibilityMPH,Wind Direction,Wind SpeedMPH,Gust SpeedMPH,PrecipitationIn,Events,Conditions,WindDirDegrees,DateUTC
12:51 AM,69.1,68.0,96,30.16,10.0,Calm,Calm,-,N/A,,Overcast,0,2013-07-14 04:51:00
1:10 AM,69.8,68.0,94,30.25,10.0,ESE,3.5,-,N/A,,Mostly Cloudy,120,2013-07-14 05:10:00
1:51 AM,69.1,68.0,96,30.16,10.0,East,4.6,-,N/A,,Overcast,100,2013-07-14 05:51:00
2:51 AM,69.1,69.1,100,30.16,10.0,ESE,8.1,-,0.00,,Mostly Cloudy,110,2013-07-14 06:51:00
3:51 AM,69.1,68.0,96,30.16,7.0,ESE,11.5,-,N/A,,Overcast,110,2013-07-14 07:51:00
4:51 AM,69.1,68.0,96,30.17,8.0,ESE,9.2,-,0.00,Rain,Light Rain,120,2013-07-14 08:51:00
5:43 AM,68.0,68.0,100,30.27,10.0,SE,12.7,19.6,0.00,,Mostly Cloudy,140,2013-07-14 09:43:00
5:51 AM,68.0,68.0,100,30.18,10.0,SE,12.7,23.0,0.00,,Scattered Clouds,130,2013-07-14 09:51:00
6:51 AM,68.0,66.9,96,30.20,10.0,ESE,11.5,20.7,N/A,,Partly Cloudy,120,2013-07-14 10:51:00
7:31 AM,69.8,68.0,94,30.30,10.0,SE,5.8,-,N/A,,Mostly Cloudy,140,2013-07-14 11:31:00
7:51 AM,69.1,66.9,93,30.22,10.0,SSE,9.2,-,N/A,,Overcast,150,2013-07-14 11:51:00
8:51 AM,70.0,66.9,90,30.25,10.0,SE,8.1,19.6,N/A,,Overcast,130,2013-07-14 12:51:00
9:00 AM,69.8,66.2,88,30.34,10.0,ESE,5.8,-,N/A,,Overcast,120,2013-07-14 13:00:00
9:21 AM,71.6,68.0,88,30.35,10.0,ESE,9.2,-,N/A,,Overcast,120,2013-07-14 13:21:00
9:51 AM,71.1,68.0,90,30.27,10.0,SE,11.5,17.3,N/A,,Overcast,130,2013-07-14 13:51:00
10:51 AM,75.0,68.0,79,30.26,10.0,SE,13.8,21.9,N/A,,Mostly Cloudy,130,2013-07-14 14:51:00
11:04 AM,75.2,68.0,78,30.36,10.0,SE,12.7,28.8,N/A,,Mostly Cloudy,140,2013-07-14 15:04:00
11:51 AM,75.9,68.0,76,30.27,10.0,SSE,16.1,23.0,N/A,,Mostly Cloudy,150,2013-07-14 15:51:00
11:59 AM,77.0,69.8,78,30.37,10.0,SSE,15.0,23.0,N/A,,Mostly Cloudy,150,2013-07-14 15:59:00
12:51 PM,77.0,68.0,74,30.27,10.0,SE,12.7,21.9,N/A,,Overcast,140,2013-07-14 16:51:00
1:51 PM,80.1,69.1,69,30.26,10.0,SSE,11.5,21.9,N/A,,Partly Cloudy,150,2013-07-14 17:51:00
2:51 PM,78.1,66.0,66,30.26,10.0,SSE,11.5,20.7,N/A,,Mostly Cloudy,160,2013-07-14 18:51:00
3:51 PM,80.1,68.0,67,30.25,10.0,SE,12.7,20.7,N/A,,Scattered Clouds,140,2013-07-14 19:51:00
4:51 PM,79.0,66.9,66,30.25,10.0,SSE,10.4,-,N/A,,Mostly Cloudy,150,2013-07-14 20:51:00
5:51 PM,81.0,68.0,65,30.24,10.0,ESE,15.0,19.6,N/A,,Mostly Cloudy,120,2013-07-14 21:51:00
6:51 PM,79.0,66.9,66,30.24,10.0,SE,9.2,16.1,N/A,,Clear,140,2013-07-14 22:51:00
7:51 PM,77.0,68.0,74,30.25,10.0,SE,5.8,-,N/A,,Clear,140,2013-07-14 23:51:00
8:51 PM,73.0,68.0,84,30.27,10.0,Calm,Calm,-,N/A,,Clear,0,2013-07-15 00:51:00
9:51 PM,73.0,68.0,84,30.28,10.0,ESE,8.1,-,N/A,,Clear,120,2013-07-15 01:51:00
10:51 PM,72.0,68.0,87,30.28,10.0,SE,10.4,-,N/A,,Clear,130,2013-07-15 02:51:00
11:51 PM,71.1,68.0,90,30.29,10.0,SE,5.8,-,N/A,,Clear,140,2013-07-15 03:51:00